Terminal Aerodrome Forecast
Issued by NWS

Home | Current Version | Previous Version | Text Only | Print | Product List | Glossary On
Versions: 1 2 3 4 5 6 7 8 9 10 11 12 13 14 15
881
FTUS43 KAPX 202325
TAFPLN
TAF
KPLN 202325Z 2100/2124 13010KT P6SM OVC200
     FM210500 15009KT P6SM VCSH SCT060 OVC090 WS020/17040KT
     FM210800 17010G21KT P6SM -SHRA OVC060
     FM211100 21009KT 3SM -SHRA SCT008 OVC015
     FM211400 26007KT 2SM -SHRA BR OVC003
     FM211700 27006KT P6SM SCT008 OVC015
     FM212100 26006KT P6SM SCT015=

USA.gov is the U.S. government's official web portal to all federal, state and local government web resources and services.